KBXA/BXA METAR and TAF weather

Enter ICAO airport designator
Station Type Date Time Source
KBXA METAR 2019/02/16 03:15 UTC NOAA

KBXA 160315Z AUTO 22009KT 10SM SCT010 OVC019 19/17 A2980 RMK AO2 T01920170


Station Type Date Time Source
KBXA Decoded METAR 2019/02/16 03:15 UTC NOAA

Bogalusa, George R Carr Memorial Air Field, LA, United States (KBXA) 30-48-49N 089-51-53W
Feb 15, 2019 - 10:15 PM EST / 2019.02.16 0315 UTC
Wind: from the SW (220 degrees) at 10 MPH (9 KT):0
Visibility: 10 mile(s):0
Sky conditions: overcast
Temperature: 66.6 F (19.2 C)
Dew Point: 62.6 F (17.0 C)
Relative Humidity: 87%
Pressure (altimeter): 29.8 in. Hg (1009 hPa)
ob: KBXA 160315Z AUTO 22009KT 10SM SCT010 OVC019 19/17 A2980 RMK AO2 T01920170
cycle: 3

Station Type Date Time Source
KBXA TAF UTC NOAA

Error!


Example: see airport list